createdAt,value
2018-09-24T00:01:29.473Z,15.10
2018-09-24T00:04:01.520Z,15.10
2018-09-24T00:06:33.452Z,15.20
2018-09-24T00:09:07.374Z,15.20
2018-09-24T00:11:39.284Z,15.30
2018-09-24T00:14:11.310Z,15.30
2018-09-24T00:16:43.415Z,15.30
2018-09-24T00:19:15.993Z,15.30
2018-09-24T00:21:47.761Z,15.30
2018-09-24T00:24:20.078Z,15.20
2018-09-24T00:26:52.312Z,15.20
2018-09-24T00:29:24.709Z,15.20
2018-09-24T00:31:56.828Z,15.10
2018-09-24T00:34:28.581Z,15.10
2018-09-24T00:37:01.132Z,15.10
2018-09-24T00:39:34.471Z,15.00
2018-09-24T00:42:06.899Z,15.00
2018-09-24T00:44:39.347Z,15.00
2018-09-24T00:47:11.933Z,15.00
2018-09-24T00:49:44.305Z,15.00
2018-09-24T00:52:16.334Z,14.90
2018-09-24T00:54:48.146Z,14.90
2018-09-24T00:57:20.129Z,14.90
2018-09-24T00:59:53.066Z,14.80
2018-09-24T01:02:25.090Z,14.80
2018-09-24T01:04:57.238Z,14.70
2018-09-24T01:07:29.574Z,14.70
2018-09-24T01:10:02.028Z,14.70
2018-09-24T01:12:33.759Z,14.70
2018-09-24T01:15:06.207Z,14.70
2018-09-24T01:17:38.506Z,14.80
2018-09-24T01:20:11.640Z,14.70
2018-09-24T01:22:43.769Z,14.60
2018-09-24T01:25:15.931Z,14.60
2018-09-24T01:27:48.006Z,14.60
2018-09-24T01:30:20.144Z,14.60
2018-09-24T01:32:51.913Z,14.50
2018-09-24T01:35:23.847Z,14.50
2018-09-24T01:37:56.043Z,14.50
2018-09-24T01:40:28.173Z,14.50
2018-09-24T01:43:01.246Z,14.50
2018-09-24T01:45:34.149Z,14.50
2018-09-24T01:48:06.194Z,14.40
2018-09-24T01:50:38.284Z,14.40
2018-09-24T01:53:10.550Z,14.40
2018-09-24T01:55:42.492Z,14.40
2018-09-24T01:58:14.541Z,14.40
2018-09-24T02:00:46.888Z,14.40
2018-09-24T02:03:19.018Z,14.40
2018-09-24T02:05:51.175Z,14.40
2018-09-24T02:08:23.074Z,14.50
2018-09-24T02:10:55.949Z,14.40
2018-09-24T02:13:28.834Z,14.30
2018-09-24T02:16:01.099Z,14.40
2018-09-24T02:18:32.923Z,14.40
2018-09-24T02:21:05.089Z,14.50
2018-09-24T02:23:37.333Z,14.40
2018-09-24T02:26:09.813Z,14.40
2018-09-24T02:28:42.436Z,14.30
2018-09-24T02:31:15.330Z,14.40
2018-09-24T02:33:47.069Z,14.40
2018-09-24T02:36:18.948Z,14.40
2018-09-24T02:38:51.176Z,14.30
2018-09-24T02:41:22.928Z,14.40
2018-09-24T02:43:54.865Z,14.30
2018-09-24T02:46:26.857Z,14.40
2018-09-24T02:49:04.787Z,14.60
2018-09-24T02:51:36.633Z,14.60
2018-09-24T02:54:08.694Z,14.70
2018-09-24T02:56:52.313Z,14.90
2018-09-24T02:59:24.188Z,14.90
2018-09-24T03:01:56.290Z,15.00
2018-09-24T03:04:28.231Z,15.10
2018-09-24T03:07:00.754Z,15.10
2018-09-24T03:09:35.381Z,15.20
2018-09-24T03:12:08.399Z,15.20
2018-09-24T03:14:40.262Z,15.20
2018-09-24T03:17:16.815Z,15.20
2018-09-24T03:19:49.189Z,15.20
2018-09-24T03:22:26.077Z,15.20
2018-09-24T03:24:58.402Z,15.30
2018-09-24T03:27:30.041Z,15.20
2018-09-24T03:30:02.511Z,15.20
2018-09-24T03:32:35.107Z,15.30
2018-09-24T03:35:07.344Z,15.30
2018-09-24T03:37:40.155Z,15.20
2018-09-24T03:40:12.237Z,15.30
2018-09-24T03:42:44.765Z,15.30
2018-09-24T03:45:17.187Z,15.40
2018-09-24T03:47:49.238Z,15.30
2018-09-24T03:50:21.383Z,15.30
2018-09-24T03:52:54.056Z,15.30
2018-09-24T03:55:26.072Z,15.40
2018-09-24T03:57:58.580Z,15.40
2018-09-24T04:00:30.589Z,15.30
2018-09-24T04:03:02.759Z,15.40
2018-09-24T04:05:39.660Z,15.40
2018-09-24T04:08:17.703Z,15.30
2018-09-24T04:10:55.295Z,15.30
2018-09-24T04:13:32.379Z,15.40
2018-09-24T04:16:09.616Z,15.40
2018-09-24T04:18:46.788Z,15.30
2018-09-24T04:21:23.866Z,15.30
2018-09-24T04:24:01.329Z,15.20
2018-09-24T04:26:38.324Z,15.20
2018-09-24T04:29:15.384Z,15.30
2018-09-24T04:31:52.328Z,15.40
2018-09-24T04:34:29.324Z,15.50
2018-09-24T04:37:06.329Z,15.50
2018-09-24T04:39:43.407Z,15.40
2018-09-24T04:42:20.708Z,15.40
2018-09-24T04:44:57.583Z,15.40
2018-09-24T04:47:34.452Z,15.30
2018-09-24T04:50:10.988Z,15.30
2018-09-24T04:52:48.030Z,15.40
2018-09-24T04:55:24.805Z,15.40
2018-09-24T04:58:01.770Z,15.40
2018-09-24T05:00:38.737Z,15.50
2018-09-24T05:03:16.296Z,15.60
2018-09-24T05:05:53.243Z,15.70
2018-09-24T05:08:30.024Z,15.90
2018-09-24T05:11:07.044Z,16.00
2018-09-24T05:13:44.473Z,16.10
2018-09-24T05:16:21.582Z,16.30
2018-09-24T05:18:58.758Z,16.40
2018-09-24T05:21:35.976Z,16.60
2018-09-24T05:24:12.982Z,16.70
2018-09-24T05:26:49.363Z,16.90
2018-09-24T05:29:26.306Z,17.20
2018-09-24T05:32:03.720Z,17.50
2018-09-24T05:34:40.977Z,17.60
2018-09-24T05:37:18.445Z,17.80
2018-09-24T05:39:57.411Z,18.00
2018-09-24T05:42:34.021Z,18.30
2018-09-24T05:45:11.287Z,18.50
2018-09-24T05:47:48.223Z,18.70
2018-09-24T05:50:25.717Z,18.80
2018-09-24T05:53:04.240Z,18.90
2018-09-24T05:55:42.473Z,19.10
2018-09-24T05:58:19.584Z,19.30
2018-09-24T06:00:56.156Z,19.50
2018-09-24T06:03:32.999Z,19.80
2018-09-24T06:06:10.216Z,20.00
2018-09-24T06:08:47.167Z,20.10
2018-09-24T06:11:24.285Z,20.10
2018-09-24T06:14:02.118Z,20.30
2018-09-24T06:16:38.916Z,20.40
2018-09-24T06:19:16.651Z,20.60
2018-09-24T06:21:53.646Z,20.70
2018-09-24T06:24:30.682Z,20.70
2018-09-24T06:27:07.755Z,20.90
2018-09-24T06:29:44.895Z,21.00
2018-09-24T06:32:21.568Z,21.10
2018-09-24T06:34:58.624Z,21.20
2018-09-24T06:37:35.784Z,21.40
2018-09-24T06:40:12.473Z,21.60
2018-09-24T06:42:49.643Z,21.70
2018-09-24T06:45:26.487Z,21.80
2018-09-24T06:48:03.396Z,21.90
2018-09-24T06:50:40.474Z,22.10
2018-09-24T06:53:17.437Z,22.20
2018-09-24T06:55:54.860Z,22.40
2018-09-24T06:58:31.753Z,22.60
2018-09-24T07:01:08.926Z,22.60
2018-09-24T07:03:46.845Z,22.60
2018-09-24T07:06:23.756Z,22.70
2018-09-24T07:09:01.007Z,22.80
2018-09-24T07:11:38.176Z,22.90
2018-09-24T07:14:16.166Z,23.10
2018-09-24T07:16:53.450Z,23.20
2018-09-24T07:19:30.985Z,23.40
2018-09-24T07:22:08.563Z,23.40
2018-09-24T07:24:45.753Z,23.60
2018-09-24T07:27:24.536Z,23.90
2018-09-24T07:30:01.958Z,24.10
2018-09-24T07:32:39.304Z,24.20
2018-09-24T07:35:17.086Z,24.20
2018-09-24T07:37:54.532Z,24.40
2018-09-24T07:40:32.890Z,24.60
2018-09-24T07:43:09.810Z,24.80
2018-09-24T07:45:48.541Z,24.90
2018-09-24T07:48:25.961Z,25.20
2018-09-24T07:51:02.642Z,25.40
2018-09-24T07:53:39.169Z,25.60
2018-09-24T07:56:16.188Z,25.80
2018-09-24T07:58:53.296Z,25.90
2018-09-24T08:01:30.441Z,26.10
2018-09-24T08:04:07.603Z,26.30
2018-09-24T08:06:45.226Z,26.30
2018-09-24T08:09:22.434Z,26.20
2018-09-24T08:11:59.851Z,26.10
2018-09-24T08:14:36.987Z,26.00
2018-09-24T08:17:14.019Z,26.00
2018-09-24T08:19:50.979Z,26.20
2018-09-24T08:22:27.877Z,26.40
2018-09-24T08:25:04.822Z,26.60
2018-09-24T08:27:42.495Z,26.90
2018-09-24T08:30:19.084Z,27.10
2018-09-24T08:32:56.022Z,27.20
2018-09-24T08:35:34.600Z,27.30
2018-09-24T08:38:12.008Z,27.30
2018-09-24T08:40:48.693Z,27.50
2018-09-24T08:43:25.625Z,27.50
2018-09-24T08:46:02.671Z,27.60
2018-09-24T08:48:39.207Z,27.60
2018-09-24T08:51:16.152Z,27.70
2018-09-24T08:53:53.649Z,27.70
2018-09-24T08:56:31.079Z,27.70
2018-09-24T08:59:08.092Z,27.60
2018-09-24T09:01:45.239Z,27.60
2018-09-24T09:04:22.224Z,27.60
2018-09-24T09:06:58.532Z,27.60
2018-09-24T09:09:35.672Z,27.70
2018-09-24T09:12:13.524Z,27.90
2018-09-24T09:14:50.470Z,27.80
2018-09-24T09:17:27.696Z,27.80
2018-09-24T09:20:04.976Z,27.90
2018-09-24T09:22:41.748Z,27.90
2018-09-24T09:25:18.409Z,28.00
2018-09-24T09:27:56.241Z,28.00
2018-09-24T09:30:33.637Z,27.90
2018-09-24T09:33:10.821Z,27.70
2018-09-24T09:35:49.283Z,27.50
2018-09-24T09:38:26.373Z,27.70
2018-09-24T09:41:03.827Z,28.10
2018-09-24T09:43:40.367Z,28.20
2018-09-24T09:46:18.498Z,28.00
2018-09-24T09:48:55.882Z,27.90
2018-09-24T09:51:33.720Z,27.90
2018-09-24T09:54:10.879Z,27.90
2018-09-24T09:56:48.033Z,27.90
2018-09-24T09:59:25.143Z,27.80
2018-09-24T10:02:02.373Z,28.00
2018-09-24T10:04:39.419Z,28.10
2018-09-24T10:07:16.720Z,28.20
2018-09-24T10:09:54.026Z,28.40
2018-09-24T10:12:31.586Z,28.70
2018-09-24T10:15:09.185Z,29.00
2018-09-24T10:17:46.442Z,29.30
2018-09-24T10:20:22.988Z,29.50
2018-09-24T10:22:59.925Z,29.50
2018-09-24T10:25:36.944Z,29.70
2018-09-24T10:28:14.177Z,29.70
2018-09-24T10:30:51.434Z,29.80
2018-09-24T10:33:29.330Z,29.70
2018-09-24T10:36:06.451Z,29.50
2018-09-24T10:38:43.023Z,29.50
2018-09-24T10:41:20.067Z,29.50
2018-09-24T10:43:57.104Z,29.50
2018-09-24T10:46:34.354Z,29.30
2018-09-24T10:49:11.653Z,29.00
2018-09-24T10:51:49.213Z,28.90
2018-09-24T10:54:26.636Z,28.80
2018-09-24T10:57:03.551Z,28.90
2018-09-24T10:59:40.807Z,28.90
2018-09-24T11:02:18.947Z,28.80
2018-09-24T11:04:56.758Z,28.70
2018-09-24T11:07:34.645Z,28.80
2018-09-24T11:10:12.588Z,29.10
2018-09-24T11:12:49.493Z,29.00
2018-09-24T11:15:26.179Z,28.90
2018-09-24T11:18:03.404Z,28.80
2018-09-24T11:20:40.888Z,28.90
2018-09-24T11:23:18.066Z,29.10
2018-09-24T11:25:55.978Z,29.40
2018-09-24T11:28:33.945Z,29.20
2018-09-24T11:31:12.078Z,28.90
2018-09-24T11:33:48.939Z,28.40
2018-09-24T11:36:26.205Z,28.10
2018-09-24T11:39:03.405Z,27.90
2018-09-24T11:41:40.931Z,27.50
2018-09-24T11:44:18.585Z,26.90
2018-09-24T11:46:56.345Z,26.00
2018-09-24T11:49:34.290Z,25.30
2018-09-24T11:52:10.917Z,25.00
2018-09-24T11:54:48.404Z,24.90
2018-09-24T11:57:25.563Z,24.90
2018-09-24T12:00:03.033Z,25.00
2018-09-24T12:02:40.488Z,25.10
2018-09-24T12:05:17.846Z,25.00
2018-09-24T12:07:55.180Z,24.90
2018-09-24T12:10:31.972Z,24.70
2018-09-24T12:13:09.481Z,24.70
2018-09-24T12:15:46.659Z,24.60
2018-09-24T12:18:24.257Z,24.50
2018-09-24T12:21:01.420Z,24.20
2018-09-24T12:23:38.354Z,23.70
2018-09-24T12:26:15.624Z,23.20
